createdAt,value
2018-02-16T00:02:25.732Z,92.50
2018-02-16T00:04:54.047Z,92.40
2018-02-16T00:07:22.388Z,92.30
2018-02-16T00:09:50.706Z,92.30
2018-02-16T00:12:19.041Z,92.30
2018-02-16T00:14:47.343Z,92.20
2018-02-16T00:17:15.684Z,92.20
2018-02-16T00:19:43.993Z,92.10
2018-02-16T00:22:13.171Z,92.10
2018-02-16T00:24:41.498Z,92.10
2018-02-16T00:27:09.852Z,92.10
2018-02-16T00:29:38.176Z,92.20
2018-02-16T00:32:06.501Z,92.20
2018-02-16T00:34:34.834Z,92.30
2018-02-16T00:37:03.154Z,92.30
2018-02-16T00:39:31.494Z,92.40
2018-02-16T00:41:59.805Z,92.40
2018-02-16T00:44:28.144Z,92.50
2018-02-16T00:46:56.462Z,92.50
2018-02-16T00:49:24.811Z,92.70
2018-02-16T00:51:53.130Z,92.60
2018-02-16T00:54:21.470Z,92.50
2018-02-16T00:56:49.794Z,92.50
2018-02-16T00:59:18.129Z,92.50
2018-02-16T01:01:46.459Z,92.50
2018-02-16T01:04:14.802Z,92.50
2018-02-16T01:06:43.119Z,92.80
2018-02-16T01:09:11.455Z,92.50
2018-02-16T01:11:39.770Z,92.50
2018-02-16T01:14:08.106Z,92.50
2018-02-16T01:16:36.410Z,92.40
2018-02-16T01:19:04.749Z,92.40
2018-02-16T01:21:33.067Z,92.50
2018-02-16T01:24:01.418Z,92.50
2018-02-16T01:26:29.745Z,92.60
2018-02-16T01:28:58.087Z,92.70
2018-02-16T01:31:26.398Z,92.50
2018-02-16T01:33:54.735Z,92.50
2018-02-16T01:36:23.055Z,92.40
2018-02-16T01:38:51.390Z,92.40
2018-02-16T01:41:19.694Z,92.30
2018-02-16T01:43:48.031Z,92.40
2018-02-16T01:46:16.343Z,92.40
2018-02-16T01:48:44.683Z,92.40
2018-02-16T01:51:12.998Z,92.40
2018-02-16T01:53:41.331Z,92.40
2018-02-16T01:56:09.643Z,92.40
2018-02-16T01:58:37.986Z,92.30
2018-02-16T02:01:06.303Z,92.30
2018-02-16T02:03:34.640Z,92.20
2018-02-16T02:06:02.952Z,92.10
2018-02-16T02:08:31.291Z,92.10
2018-02-16T02:10:59.607Z,92.20
2018-02-16T02:13:27.942Z,92.30
2018-02-16T02:15:56.254Z,92.30
2018-02-16T02:18:24.562Z,92.30
2018-02-16T02:20:52.903Z,92.30
2018-02-16T02:23:21.228Z,92.60
2018-02-16T02:25:49.566Z,92.20
2018-02-16T02:28:17.886Z,92.20
2018-02-16T02:30:46.216Z,92.20
2018-02-16T02:33:14.528Z,92.10
2018-02-16T02:35:42.872Z,92.10
2018-02-16T02:38:11.188Z,92.10
2018-02-16T02:40:39.523Z,92.10
2018-02-16T02:43:07.848Z,92.00
2018-02-16T02:45:36.183Z,92.00
2018-02-16T02:48:04.500Z,92.00
2018-02-16T02:50:32.851Z,92.00
2018-02-16T02:53:01.171Z,92.00
2018-02-16T02:55:29.506Z,92.00
2018-02-16T02:57:57.822Z,92.00
2018-02-16T03:00:26.171Z,92.10
2018-02-16T03:02:54.492Z,92.10
2018-02-16T03:05:22.827Z,92.10
2018-02-16T03:07:51.148Z,92.10
2018-02-16T03:10:19.485Z,92.10
2018-02-16T03:12:47.810Z,92.10
2018-02-16T03:15:16.154Z,92.10
2018-02-16T03:17:44.466Z,92.10
2018-02-16T03:20:12.814Z,92.10
2018-02-16T03:22:41.142Z,92.10
2018-02-16T03:25:09.466Z,92.10
2018-02-16T03:27:37.783Z,92.20
2018-02-16T03:30:06.119Z,92.20
2018-02-16T03:32:34.438Z,92.20
2018-02-16T03:35:02.774Z,92.20
2018-02-16T03:37:31.102Z,92.30
2018-02-16T03:39:59.439Z,92.40
2018-02-16T03:42:27.754Z,92.30
2018-02-16T03:44:56.096Z,92.30
2018-02-16T03:47:23.639Z,92.30
2018-02-16T03:49:51.971Z,92.30
2018-02-16T03:52:20.286Z,92.30
2018-02-16T03:54:48.626Z,92.20
2018-02-16T03:57:16.939Z,92.10
2018-02-16T03:59:45.250Z,92.10
2018-02-16T04:02:13.587Z,92.20
2018-02-16T04:04:41.899Z,92.20
2018-02-16T04:07:10.234Z,92.30
2018-02-16T04:09:38.550Z,92.30
2018-02-16T04:12:06.888Z,92.30
2018-02-16T04:14:35.205Z,92.30
2018-02-16T04:17:03.537Z,92.30
2018-02-16T04:19:31.855Z,92.30
2018-02-16T04:22:00.199Z,92.70
2018-02-16T04:24:28.512Z,92.30
2018-02-16T04:26:56.856Z,92.40
2018-02-16T04:29:25.168Z,92.50
2018-02-16T04:31:53.504Z,92.50
2018-02-16T04:34:21.823Z,92.60
2018-02-16T04:36:50.159Z,92.60
2018-02-16T04:39:18.472Z,92.70
2018-02-16T04:41:46.807Z,92.70
2018-02-16T04:44:15.122Z,92.50
2018-02-16T04:46:43.470Z,92.50
2018-02-16T04:49:11.784Z,92.60
2018-02-16T04:51:40.128Z,92.60
2018-02-16T04:54:08.446Z,92.70
2018-02-16T04:56:36.792Z,92.60
2018-02-16T04:59:05.104Z,92.60
2018-02-16T05:01:33.449Z,92.70
2018-02-16T05:04:01.762Z,92.70
2018-02-16T05:06:30.107Z,92.70
2018-02-16T05:08:58.421Z,92.60
2018-02-16T05:11:26.752Z,92.60
2018-02-16T05:13:55.083Z,92.50
2018-02-16T05:16:23.446Z,92.40
2018-02-16T05:18:51.756Z,92.30
2018-02-16T05:21:20.095Z,92.30
2018-02-16T05:23:48.413Z,92.20
2018-02-16T05:26:16.749Z,92.20
2018-02-16T05:28:45.059Z,92.10
2018-02-16T05:31:13.403Z,92.00
2018-02-16T05:33:41.728Z,92.10
2018-02-16T05:36:10.075Z,92.00
2018-02-16T05:38:38.387Z,92.30
2018-02-16T05:41:06.713Z,91.90
2018-02-16T05:43:35.051Z,91.90
2018-02-16T05:46:03.392Z,91.90
2018-02-16T05:48:31.722Z,91.90
2018-02-16T05:51:00.045Z,91.90
2018-02-16T05:53:28.381Z,92.00
2018-02-16T05:55:56.686Z,92.20
2018-02-16T06:00:58.611Z,92.10
2018-02-16T06:03:26.944Z,92.20
2018-02-16T06:05:55.259Z,92.20
2018-02-16T06:08:23.590Z,92.20
2018-02-16T06:10:51.905Z,92.20
2018-02-16T06:13:20.273Z,92.20
2018-02-16T06:15:48.603Z,92.20
2018-02-16T06:18:16.940Z,92.10
2018-02-16T06:20:45.250Z,92.10
2018-02-16T06:23:13.603Z,92.10
2018-02-16T06:25:41.926Z,92.20
2018-02-16T06:28:10.269Z,92.20
2018-02-16T06:30:38.579Z,92.10
2018-02-16T06:33:06.915Z,92.10
2018-02-16T06:35:35.231Z,92.10
2018-02-16T06:38:03.579Z,92.10
2018-02-16T06:40:31.895Z,92.20
2018-02-16T06:43:00.233Z,92.20
2018-02-16T06:45:28.591Z,92.30
2018-02-16T06:47:56.914Z,92.30
2018-02-16T06:50:25.233Z,92.30
2018-02-16T06:52:53.567Z,92.30
2018-02-16T06:55:21.878Z,92.40
2018-02-16T06:57:50.239Z,92.40
2018-02-16T07:00:18.555Z,92.40
2018-02-16T07:02:46.899Z,92.40
2018-02-16T07:05:15.217Z,92.40
2018-02-16T07:07:43.554Z,92.40
2018-02-16T07:10:11.876Z,92.40
2018-02-16T07:12:40.218Z,92.50
2018-02-16T07:15:08.534Z,92.60
2018-02-16T07:17:36.871Z,92.70
2018-02-16T07:20:05.186Z,92.70
2018-02-16T07:22:33.535Z,92.60
2018-02-16T07:25:01.849Z,92.50
2018-02-16T07:27:30.183Z,92.50
2018-02-16T07:29:58.499Z,92.50
2018-02-16T07:32:26.827Z,92.40
2018-02-16T07:34:55.167Z,92.40
2018-02-16T07:37:23.482Z,92.50
2018-02-16T07:39:51.823Z,92.50
2018-02-16T07:42:20.135Z,92.40
2018-02-16T07:44:48.480Z,92.40
2018-02-16T07:47:16.792Z,92.50
2018-02-16T07:52:18.847Z,92.80
2018-02-16T07:54:47.183Z,92.70
2018-02-16T07:57:15.502Z,92.60
2018-02-16T07:59:43.830Z,92.60
2018-02-16T08:02:12.147Z,92.60
2018-02-16T08:04:40.474Z,92.60
2018-02-16T08:07:08.778Z,92.70
2018-02-16T08:09:37.115Z,92.60
2018-02-16T08:12:05.431Z,92.50
2018-02-16T08:14:33.784Z,92.40
2018-02-16T08:17:02.112Z,92.30
2018-02-16T08:19:30.491Z,92.40
2018-02-16T08:21:58.809Z,92.30
2018-02-16T08:24:27.143Z,92.30
2018-02-16T08:26:55.464Z,92.40
2018-02-16T08:29:23.799Z,92.30
2018-02-16T08:31:52.113Z,92.40
2018-02-16T08:34:20.451Z,92.50
2018-02-16T08:36:48.774Z,92.70
2018-02-16T08:39:17.115Z,92.70
2018-02-16T08:41:45.440Z,92.70
2018-02-16T08:44:13.834Z,92.80
2018-02-16T08:46:42.151Z,92.70
2018-02-16T08:49:10.494Z,92.50
2018-02-16T08:51:38.803Z,92.40
2018-02-16T08:54:07.155Z,92.50
2018-02-16T08:56:35.483Z,92.30
2018-02-16T08:59:03.806Z,92.00
2018-02-16T09:01:32.120Z,91.80
2018-02-16T09:04:00.467Z,91.30
2018-02-16T09:06:28.785Z,90.90
2018-02-16T09:08:57.123Z,90.50
2018-02-16T09:11:25.455Z,90.10
2018-02-16T09:13:53.796Z,89.00
2018-02-16T09:16:22.113Z,88.30
2018-02-16T09:18:50.424Z,87.10
2018-02-16T09:21:18.755Z,85.50
2018-02-16T09:23:47.064Z,85.00
2018-02-16T09:26:15.397Z,83.90
2018-02-16T09:28:43.717Z,82.60
2018-02-16T09:31:12.054Z,81.60
2018-02-16T09:33:40.366Z,79.90
2018-02-16T09:36:08.878Z,79.40
2018-02-16T09:38:39.367Z,79.10
2018-02-16T09:41:07.710Z,79.10
2018-02-16T09:43:36.028Z,78.20
2018-02-16T09:46:04.359Z,77.70
2018-02-16T09:48:32.681Z,77.10
2018-02-16T09:51:01.015Z,76.10
2018-02-16T09:53:29.332Z,75.10
2018-02-16T09:55:57.667Z,73.50
2018-02-16T09:58:26.179Z,72.90
2018-02-16T10:00:54.526Z,72.20
2018-02-16T10:03:22.835Z,71.70
2018-02-16T10:05:51.180Z,70.90
2018-02-16T10:08:19.501Z,71.00
2018-02-16T10:10:47.839Z,69.50
2018-02-16T10:13:16.163Z,69.20
2018-02-16T10:15:44.515Z,69.50
2018-02-16T10:18:12.833Z,69.30
2018-02-16T10:20:41.162Z,69.30
2018-02-16T10:23:09.477Z,69.00
2018-02-16T10:25:37.815Z,68.80
2018-02-16T10:28:06.149Z,68.50
2018-02-16T10:30:34.482Z,67.50
2018-02-16T10:33:02.794Z,66.60
2018-02-16T10:35:31.147Z,66.00
2018-02-16T10:37:59.459Z,66.10
2018-02-16T10:40:27.836Z,65.80
2018-02-16T10:42:56.135Z,66.90
2018-02-16T10:45:24.484Z,65.80
2018-02-16T10:47:52.786Z,65.20
2018-02-16T10:50:21.118Z,65.60
2018-02-16T10:52:49.428Z,63.60
2018-02-16T10:55:17.763Z,62.70
2018-02-16T10:57:46.067Z,63.60
2018-02-16T11:00:14.408Z,64.40
2018-02-16T11:02:48.298Z,64.70
2018-02-16T11:05:16.644Z,64.80
2018-02-16T11:07:49.914Z,65.20
2018-02-16T11:10:18.244Z,64.70
2018-02-16T11:12:46.561Z,64.40
2018-02-16T11:15:14.875Z,64.00
2018-02-16T11:17:43.211Z,62.70
2018-02-16T11:20:11.539Z,61.50
2018-02-16T11:22:39.877Z,60.00
2018-02-16T11:25:08.195Z,58.90
2018-02-16T11:27:36.531Z,57.80
2018-02-16T11:30:04.852Z,56.30
2018-02-16T11:32:33.201Z,55.50
2018-02-16T11:35:01.646Z,55.60
2018-02-16T11:37:30.067Z,55.00
2018-02-16T11:39:58.492Z,55.00
2018-02-16T11:42:27.061Z,54.60
2018-02-16T11:44:55.575Z,53.90
2018-02-16T11:47:24.188Z,53.90
2018-02-16T11:49:52.719Z,53.00
2018-02-16T11:52:21.104Z,52.20
2018-02-16T11:54:49.454Z,52.10
2018-02-16T11:57:17.808Z,53.10
2018-02-16T11:59:46.131Z,53.40
2018-02-16T12:02:14.472Z,52.20
2018-02-16T12:04:43.342Z,51.10
2018-02-16T12:07:11.684Z,50.80
2018-02-16T12:09:40.445Z,50.50
2018-02-16T12:12:08.788Z,51.60
2018-02-16T12:14:37.090Z,52.60
2018-02-16T12:17:05.426Z,53.90
2018-02-16T12:19:33.750Z,55.20
2018-02-16T12:22:02.085Z,55.60
2018-02-16T12:24:30.395Z,56.40
2018-02-16T12:26:58.742Z,57.10
2018-02-16T12:29:27.055Z,57.40
2018-02-16T12:31:55.378Z,57.10
2018-02-16T12:34:23.721Z,56.60
2018-02-16T12:36:52.030Z,56.70
2018-02-16T12:39:20.370Z,56.00
2018-02-16T12:41:48.687Z,56.30
2018-02-16T12:44:17.015Z,56.40
2018-02-16T12:46:45.330Z,56.40
2018-02-16T12:49:13.666Z,56.60
2018-02-16T12:51:41.979Z,56.80
2018-02-16T12:54:10.328Z,57.30
2018-02-16T12:56:38.642Z,57.40
2018-02-16T12:59:06.982Z,56.70
2018-02-16T13:01:35.301Z,55.70
2018-02-16T13:04:03.639Z,54.60
2018-02-16T13:06:31.947Z,53.20
2018-02-16T13:09:00.279Z,53.20
2018-02-16T13:11:28.602Z,53.80
2018-02-16T13:13:56.947Z,53.00
2018-02-16T13:16:25.266Z,52.60
2018-02-16T13:18:53.598Z,51.80
2018-02-16T13:21:21.915Z,51.30
2018-02-16T13:23:50.255Z,51.00
2018-02-16T13:26:18.572Z,50.50
2018-02-16T13:28:46.954Z,50.20
2018-02-16T13:31:15.268Z,48.70
2018-02-16T13:33:43.621Z,48.50
2018-02-16T13:36:11.942Z,48.70
2018-02-16T13:38:40.291Z,49.80
2018-02-16T13:41:08.603Z,48.70
2018-02-16T13:43:36.940Z,47.90
2018-02-16T13:46:05.255Z,48.00
2018-02-16T13:48:33.591Z,48.00
2018-02-16T13:51:01.906Z,47.90
2018-02-16T13:53:30.253Z,48.30
2018-02-16T13:55:57.803Z,48.00
2018-02-16T13:58:25.375Z,48.70
2018-02-16T14:00:53.699Z,46.80
2018-02-16T14:03:22.060Z,46.30
2018-02-16T14:05:50.426Z,45.70
2018-02-16T14:08:18.743Z,45.50
2018-02-16T14:10:47.068Z,46.10
2018-02-16T14:13:15.395Z,45.40
2018-02-16T14:15:43.739Z,44.00
2018-02-16T14:18:12.085Z,44.10
2018-02-16T14:20:40.419Z,43.90
2018-02-16T14:23:08.736Z,44.10
2018-02-16T14:25:37.084Z,44.00
2018-02-16T14:28:05.483Z,42.50
2018-02-16T14:30:33.835Z,43.00
2018-02-16T14:33:02.159Z,43.00
2018-02-16T14:35:30.510Z,42.70
2018-02-16T14:37:58.839Z,42.90
2018-02-16T14:40:27.191Z,43.90
2018-02-16T14:42:55.500Z,43.60
2018-02-16T14:45:23.842Z,43.60
2018-02-16T14:47:53.356Z,44.00
2018-02-16T14:50:21.691Z,44.20
2018-02-16T14:52:50.034Z,44.30
2018-02-16T14:55:18.379Z,44.80
2018-02-16T14:57:46.687Z,45.30
2018-02-16T15:00:15.021Z,45.90
2018-02-16T15:02:43.344Z,46.20
2018-02-16T15:05:11.679Z,46.20
2018-02-16T15:07:39.996Z,46.50
2018-02-16T15:10:08.324Z,47.00
2018-02-16T15:12:36.628Z,46.80
2018-02-16T15:15:04.974Z,47.00
2018-02-16T15:17:33.287Z,47.30
2018-02-16T15:20:01.628Z,47.60
2018-02-16T15:22:29.935Z,48.10
2018-02-16T15:24:58.274Z,48.70
2018-02-16T15:27:26.614Z,49.40
2018-02-16T15:29:54.995Z,49.90
2018-02-16T15:32:23.322Z,50.00
2018-02-16T15:34:51.662Z,50.40
2018-02-16T15:37:19.988Z,51.70
2018-02-16T15:39:48.368Z,51.50
2018-02-16T15:42:16.674Z,51.60
2018-02-16T15:44:45.024Z,51.70
2018-02-16T15:47:13.348Z,52.00
2018-02-16T15:49:41.695Z,52.20
2018-02-16T15:52:10.008Z,52.60
2018-02-16T15:54:38.342Z,53.10
2018-02-16T15:57:06.655Z,53.60
2018-02-16T15:59:35.005Z,54.20
2018-02-16T16:02:03.434Z,55.00
2018-02-16T16:04:31.899Z,55.40
2018-02-16T16:07:00.397Z,55.70
2018-02-16T16:09:28.973Z,56.30
2018-02-16T16:12:03.113Z,56.80
2018-02-16T16:14:32.195Z,57.10
2018-02-16T16:17:00.534Z,57.50
2018-02-16T16:19:28.839Z,57.70
2018-02-16T16:21:57.194Z,58.10
2018-02-16T16:24:25.499Z,58.10
2018-02-16T16:26:53.834Z,58.50
2018-02-16T16:29:22.151Z,59.30
2018-02-16T16:31:50.522Z,60.20
2018-02-16T16:34:18.850Z,61.10
2018-02-16T16:36:47.191Z,61.60
2018-02-16T16:39:15.515Z,61.90
2018-02-16T16:41:43.851Z,62.20
2018-02-16T16:44:12.186Z,63.00
2018-02-16T16:46:40.526Z,64.00
2018-02-16T16:49:08.839Z,64.70
2018-02-16T16:51:37.183Z,65.60
2018-02-16T16:54:05.492Z,66.30
2018-02-16T16:56:33.823Z,67.00
2018-02-16T16:59:02.144Z,67.50
2018-02-16T17:01:30.487Z,68.10
2018-02-16T17:03:58.797Z,68.70
2018-02-16T17:06:27.144Z,69.50
2018-02-16T17:08:55.451Z,70.20
2018-02-16T17:11:23.781Z,71.00
2018-02-16T17:13:52.156Z,71.20
2018-02-16T17:16:20.495Z,71.60
2018-02-16T17:18:48.811Z,71.90
2018-02-16T17:21:17.144Z,72.70
2018-02-16T17:23:45.464Z,72.70
2018-02-16T17:26:13.793Z,73.40
2018-02-16T17:28:42.108Z,74.20
2018-02-16T17:31:10.455Z,74.80
2018-02-16T17:33:38.767Z,76.20
2018-02-16T17:36:07.111Z,75.70
2018-02-16T17:38:35.414Z,75.80
2018-02-16T17:41:03.773Z,76.00
2018-02-16T17:43:32.173Z,76.80
2018-02-16T17:46:00.586Z,77.40
2018-02-16T17:48:28.952Z,77.70
2018-02-16T17:50:57.283Z,78.10
2018-02-16T17:53:25.628Z,78.40
2018-02-16T17:55:54.012Z,78.90
2018-02-16T17:58:22.355Z,79.10
2018-02-16T18:00:50.727Z,79.30
2018-02-16T18:03:19.152Z,79.50
2018-02-16T18:05:47.543Z,79.80
2018-02-16T18:08:15.906Z,80.10
2018-02-16T18:10:44.240Z,80.20
2018-02-16T18:13:12.652Z,80.30
2018-02-16T18:15:41.034Z,80.20
2018-02-16T18:18:09.386Z,80.80
2018-02-16T18:20:37.746Z,81.20
2018-02-16T18:23:06.107Z,81.70
2018-02-16T18:25:34.543Z,82.00
2018-02-16T18:28:03.130Z,82.20
2018-02-16T18:30:31.443Z,82.40
2018-02-16T18:32:59.809Z,82.20
2018-02-16T18:35:28.247Z,82.20
2018-02-16T18:37:56.727Z,82.30
2018-02-16T18:40:25.032Z,82.50
2018-02-16T18:42:53.375Z,83.00
2018-02-16T18:45:21.709Z,83.00
2018-02-16T18:47:50.040Z,83.30
2018-02-16T18:50:18.356Z,83.60
2018-02-16T18:52:46.689Z,83.60
2018-02-16T18:55:14.999Z,83.40
2018-02-16T18:57:43.342Z,84.30
2018-02-16T19:00:11.655Z,83.80
2018-02-16T19:02:39.995Z,84.10
2018-02-16T19:05:08.306Z,84.30
2018-02-16T19:07:36.643Z,84.40
2018-02-16T19:10:04.956Z,84.50
2018-02-16T19:12:33.291Z,84.50
2018-02-16T19:15:01.604Z,84.40
2018-02-16T19:17:29.937Z,84.30
2018-02-16T19:19:58.256Z,84.40
2018-02-16T19:22:26.760Z,84.70
2018-02-16T19:24:55.094Z,84.90
2018-02-16T19:27:23.464Z,84.90
2018-02-16T19:29:51.799Z,84.70
2018-02-16T19:32:20.142Z,84.70
2018-02-16T19:34:48.574Z,84.80
2018-02-16T19:37:16.924Z,85.60
2018-02-16T19:39:45.268Z,85.30
2018-02-16T19:42:13.986Z,85.40
2018-02-16T19:44:42.400Z,84.90
2018-02-16T19:47:11.200Z,85.30
2018-02-16T19:49:39.611Z,85.50
2018-02-16T19:52:08.411Z,85.90
2018-02-16T19:54:36.872Z,86.00
2018-02-16T19:57:05.202Z,85.70
2018-02-16T19:59:33.989Z,85.70
2018-02-16T20:02:02.389Z,85.90
2018-02-16T20:04:31.352Z,85.80
2018-02-16T20:06:59.763Z,85.60
2018-02-16T20:09:28.592Z,85.90
2018-02-16T20:11:57.258Z,86.00
2018-02-16T20:14:25.647Z,85.90
2018-02-16T20:16:53.966Z,86.10
2018-02-16T20:19:22.307Z,86.20
2018-02-16T20:21:50.623Z,86.30
2018-02-16T20:24:18.959Z,86.00
2018-02-16T20:26:47.295Z,86.00
2018-02-16T20:29:15.636Z,86.40
2018-02-16T20:31:43.967Z,86.60
2018-02-16T20:34:12.311Z,86.80
2018-02-16T20:36:40.894Z,86.60
2018-02-16T20:39:09.277Z,86.60
2018-02-16T20:41:37.828Z,86.50
2018-02-16T20:44:06.423Z,86.40
2018-02-16T20:46:34.792Z,86.20
2018-02-16T20:49:03.128Z,86.40
2018-02-16T20:51:31.454Z,86.90
2018-02-16T20:53:59.791Z,86.80
2018-02-16T20:56:28.231Z,86.70
2018-02-16T20:58:56.601Z,86.60
2018-02-16T21:01:24.983Z,86.60
2018-02-16T21:03:53.415Z,86.60
2018-02-16T21:06:21.738Z,86.50
2018-02-16T21:08:50.074Z,86.60
2018-02-16T21:11:18.409Z,86.70
2018-02-16T21:13:46.748Z,86.60
2018-02-16T21:16:15.142Z,86.60
2018-02-16T21:18:43.475Z,86.70
2018-02-16T21:21:11.795Z,87.20
2018-02-16T21:23:40.137Z,87.30
2018-02-16T21:26:08.446Z,87.30
2018-02-16T21:28:36.789Z,87.00
2018-02-16T21:31:05.104Z,86.80
2018-02-16T21:33:33.430Z,86.60
2018-02-16T21:36:01.832Z,86.50
2018-02-16T21:38:30.171Z,86.60
2018-02-16T21:40:58.511Z,86.70
2018-02-16T21:43:26.841Z,87.10
2018-02-16T21:45:55.179Z,87.30
2018-02-16T21:48:23.503Z,87.30
2018-02-16T21:50:51.835Z,87.90
2018-02-16T21:53:20.158Z,87.10
2018-02-16T21:55:48.499Z,87.20
2018-02-16T21:58:16.815Z,87.00
2018-02-16T22:00:45.155Z,87.10
2018-02-16T22:03:13.483Z,86.90
2018-02-16T22:05:41.829Z,86.90
2018-02-16T22:08:10.144Z,87.00
2018-02-16T22:10:38.484Z,86.90
2018-02-16T22:13:06.796Z,86.70
2018-02-16T22:15:35.140Z,86.90
2018-02-16T22:18:03.458Z,87.20
2018-02-16T22:20:31.802Z,87.10
2018-02-16T22:23:00.126Z,87.00
2018-02-16T22:25:28.468Z,87.00
2018-02-16T22:27:56.796Z,87.00
2018-02-16T22:30:25.135Z,87.20
2018-02-16T22:32:53.454Z,87.20
2018-02-16T22:35:21.791Z,87.10
2018-02-16T22:37:50.103Z,86.90
2018-02-16T22:40:18.432Z,86.70
2018-02-16T22:42:46.742Z,86.80
2018-02-16T22:45:15.081Z,86.90
2018-02-16T22:47:43.405Z,86.70
2018-02-16T22:50:11.743Z,86.80
2018-02-16T22:52:40.063Z,86.80
2018-02-16T22:55:08.404Z,86.80
2018-02-16T22:57:36.719Z,86.70
2018-02-16T23:00:05.062Z,86.60
2018-02-16T23:02:33.379Z,86.70
2018-02-16T23:05:01.732Z,86.70
2018-02-16T23:07:30.050Z,86.80
2018-02-16T23:09:58.390Z,86.90
2018-02-16T23:12:26.712Z,86.80
2018-02-16T23:14:55.055Z,86.80
2018-02-16T23:17:23.375Z,86.90
2018-02-16T23:19:51.691Z,87.50
2018-02-16T23:22:20.026Z,86.70
2018-02-16T23:24:48.338Z,86.80
2018-02-16T23:27:16.679Z,86.20
2018-02-16T23:29:44.994Z,86.60
2018-02-16T23:32:13.336Z,86.60
2018-02-16T23:34:41.659Z,86.70
2018-02-16T23:37:09.992Z,86.70
2018-02-16T23:39:38.312Z,86.70
2018-02-16T23:42:06.658Z,86.60
2018-02-16T23:44:34.932Z,86.60
2018-02-16T23:47:03.270Z,86.60
2018-02-16T23:49:31.594Z,86.70
2018-02-16T23:51:59.939Z,86.80
2018-02-16T23:54:28.255Z,86.70
2018-02-16T23:56:56.599Z,86.80
2018-02-16T23:59:24.915Z,86.70
